Latest Coastal Weather Observations for Coconut Island

IDQ60701

Issued at 12:51 pm EST Wednesday 10 February 2016 (issued every 10 minutes, with the page automatically refreshed every 10 minutes)

About coastal observations | Map of coastal stations | Coastal observations for QLD | Marine services | Other Formats
Station Details ID: 027054 Name: COCONUT ISLAND Lat: -10.05 Lon: 143.07 Height: 3.5 m
Data from the previous 72 hours. | See also: Recent months at Coconut Island
Date/Time
EST
Temp

°C
Wind Pressure Rain
since 9am
mm
Weather Cloud Vis
km
Sea
Height
m
Swell
Dir
 
Speed
knots
Gust
knots
hPa Trend Height
m
Period
s
Dir
10/12:30pm 28.5 W 6 10 1007.4 - 12.8 - - - - - - -
10/12:00pm 28.1 W 5 9 1007.8 - 12.8 Recent precip. - - - - - -
10/11:30am 27.5 WNW 4 7 1008.1 - 12.8 - - - - - - -
10/11:00am 26.5 WNW 7 11 1008.3 - 12.6 - - - - - - -
10/10:30am 26.2 WNW 8 13 1008.8 - 9.8 - - - - - - -
10/10:00am 26.2 W 7 10 1008.8 - 8.4 - - - - - - -
10/09:30am 26.2 WNW 8 10 1008.7 - 7.6 - - - - - - -
10/09:00am 26.3 WNW 8 13 1008.5 - 7.8 Rain - - - - - -
10/08:30am 28.5 NW 7 13 1008.2 - 2.6 - - - - - - -
10/08:00am 28.0 WNW 8 15 1008.0 - 2.2 - - - - - - -
10/07:30am 28.4 NW 8 12 1007.5 - 1.8 - - - - - - -
10/07:00am 28.4 NW 11 15 1007.0 - 1.8 - - - - - - -
10/06:30am 28.1 NW 9 14 1006.4 - 1.8 - - - - - - -
10/06:00am 27.8 NW 8 11 1006.1 - 1.8 Recent precip. - - - - - -
10/05:30am 27.0 WNW 10 16 1006.2 - 1.4 - - - - - - -
10/05:00am 28.4 NNW 10 13 1005.8 - 0.0 - - - - - - -
10/04:30am 28.5 NNW 11 15 1005.8 - 0.0 - - - - - - -
10/04:00am 28.3 NW 10 14 1006.0 - 0.0 - - - - - - -
10/03:30am 28.1 NNW 10 14 1006.0 - 0.0 - - - - - - -
10/03:00am 28.1 NW 10 16 1006.3 - 0.0 - - - - - - -
10/02:30am 28.5 NNW 12 15 1006.5 - 0.0 - - - - - - -
10/02:00am 28.6 NNW 11 14 1006.9 - 0.0 - - - - - - -
10/01:30am 28.5 NNW 9 12 1007.0 - 0.0 - - - - - - -
10/01:00am 28.6 N 7 11 1007.5 - 0.0 - - - - - - -
10/12:30am 29.0 NNW 6 9 1007.7 - 0.0 - - - - - - -
10/12:00am 29.1 NNW 6 9 1008.3 - 0.0 - - - - - - -
 
Date/Time
EST
Temp

°C
Wind Pressure Rain
since 9am
mm
Weather Cloud Vis
km
Sea
Height
m
Swell
Dir
 
Speed
knots
Gust
knots
hPa Trend Height
m
Period
s
Dir
09/11:30pm 29.1 NNW 6 8 1008.8 - 0.0 - - - - - - -
09/11:00pm 29.2 NW 5 7 1009.0 - 0.0 - - - - - - -
09/10:30pm 29.3 NW 4 6 1008.9 - 0.0 - - - - - - -
09/10:00pm 29.4 NW 5 7 1008.7 - 0.0 - - - - - - -
09/09:30pm 29.5 NW 5 7 1008.5 - 0.0 - - - - - - -
09/09:00pm 29.5 NW 5 7 1008.2 - 0.0 - - - - - - -
09/08:30pm 29.6 NW 6 8 1007.9 - 0.0 - - - - - - -
09/08:00pm 29.7 NW 5 7 1007.4 - 0.0 - - - - - - -
09/07:30pm 29.6 NW 5 7 1007.1 - 0.0 - - - - - - -
09/07:00pm 29.8 NW 5 7 1006.9 - 0.0 - - - - - - -
09/06:30pm 30.3 NW 4 6 1006.7 - 0.0 - - - - - - -
09/06:00pm 30.9 WNW 5 7 1006.2 - 0.0 - - - - - - -
09/05:30pm 31.2 WNW 5 7 1005.9 - 0.0 - - - - - - -
09/05:00pm 31.3 NW 4 6 1005.8 - 0.0 - - - - - - -
09/04:30pm 31.4 WNW 4 6 1005.5 - 0.0 - - - - - - -
09/04:00pm 31.6 NW 3 5 1005.2 - 0.0 - - - - - - -
09/03:30pm 31.5 NW 3 4 1005.5 - 0.0 - - - - - - -
09/03:00pm 31.5 NW 3 4 1005.8 - 0.0 - - - - - - -
09/02:30pm 31.6 N 3 5 1006.3 - 0.0 - - - - - - -
09/02:00pm 31.3 NNW 3 5 1006.7 - 0.0 - - - - - - -
09/01:30pm 31.6 NNW 4 5 1007.3 - 0.0 - - - - - - -
09/01:00pm 31.4 NNW 6 7 1008.0 - 0.0 - - - - - - -
09/12:30pm 32.0 NW 5 7 1008.6 - 0.0 - - - - - - -
09/12:00pm 31.5 NW 4 7 1009.0 - 0.0 - - - - - - -
09/11:30am 31.7 NNW 5 6 1009.3 - 0.0 - - - - - - -
09/11:00am 31.2 NNW 5 7 1009.6 - 0.0 - - - - - - -
09/10:30am 31.7 NW 5 7 1009.9 - 0.0 - - - - - - -
09/10:00am 31.2 NNW 4 6 1009.8 - 0.0 - - - - - - -
09/09:30am 31.0 NNW 4 6 1009.7 - 0.0 - - - - - - -
09/09:00am 30.5 WNW 4 6 1009.5 - 0.0 - - - - - - -
09/08:30am 29.9 W 3 6 1009.1 - 0.0 - - - - - - -
09/08:00am 28.7 W 4 6 1008.8 - 0.0 - - - - - - -
09/07:30am 28.5 W 4 7 1008.6 - 0.0 - - - - - - -
09/07:00am 28.1 WNW 4 8 1008.4 - 0.0 - - - - - - -
09/06:30am 27.5 NW 6 9 1008.2 - 0.0 - - - - - - -
09/06:00am 27.9 NW 7 11 1008.0 - 0.0 - - - - - - -
09/05:30am 28.1 W 3 4 1007.6 - 0.0 - - - - - - -
09/05:00am 28.1 W 3 4 1007.3 - 0.0 - - - - - - -
09/04:30am 28.4 W 3 4 1007.5 - 0.0 - - - - - - -
09/04:00am 28.4 WSW 3 5 1007.1 - 0.0 - - - - - - -
09/03:30am 28.5 W 2 4 1007.3 - 0.0 - - - - - - -
09/03:00am 28.6 W 3 6 1007.3 - 0.0 - - - - - - -
09/02:30am 28.7 W 4 6 1007.6 - 0.0 - - - - - - -
09/02:00am 28.3 SW 3 5 1007.5 - 0.0 - - - - - - -
09/01:30am 28.4 SW 2 5 1007.7 - 0.0 - - - - - - -
09/01:00am 27.9 SSW 1 3 1007.9 - 0.0 - - - - - - -
09/12:30am 28.1 SSW 1 3 1008.2 - 0.0 - - - - - - -
09/12:00am 28.6 WSW 3 5 1008.5 - 0.0 - - - - - - -
 
Date/Time
EST
Temp

°C
Wind Pressure Rain
since 9am
mm
Weather Cloud Vis
km
Sea
Height
m
Swell
Dir
 
Speed
knots
Gust
knots
hPa Trend Height
m
Period
s
Dir
08/11:30pm 28.7 WSW 3 6 1008.8 - 0.0 - - - - - - -
08/11:00pm 28.7 WSW 3 5 1008.8 - 0.0 - - - - - - -
08/10:30pm 28.4 SW 2 5 1009.0 - 0.0 - - - - - - -
08/10:00pm 28.4 SSW 2 4 1009.0 - 0.0 - - - - - - -
08/09:30pm 28.8 SW 3 5 1008.6 - 0.0 - - - - - - -
08/09:00pm 29.0 SW 3 7 1008.1 - 0.0 - - - - - - -
08/08:30pm 29.1 SW 4 7 1007.6 - 0.0 - - - - - - -
08/08:00pm 29.1 WSW 4 6 1007.2 - 0.0 - - - - - - -
08/07:30pm 29.2 W 6 9 1006.8 - 0.0 - - - - - - -
08/07:00pm 29.3 W 4 8 1006.8 - 0.0 - - - - - - -
08/06:30pm 29.8 WNW 5 8 1006.6 - 0.0 - - - - - - -
08/06:00pm 30.3 WNW 5 8 1006.4 - 0.0 - - - - - - -
08/05:30pm 31.1 WNW 5 8 1006.2 - 0.0 - - - - - - -
08/05:00pm 31.6 WNW 6 8 1006.0 - 0.0 - - - - - - -
08/04:30pm 31.6 WNW 6 9 1005.8 - 0.0 - - - - - - -
08/04:00pm 31.3 WNW 5 7 1005.8 - 0.0 - - - - - - -
08/03:30pm 31.6 NW 5 9 1006.0 - 0.0 - - - - - - -
08/03:00pm 31.2 NW 5 8 1006.5 - 0.0 - - - - - - -
08/02:30pm 31.5 NW 5 8 1007.0 - 0.0 - - - - - - -
08/02:00pm 31.4 NW 5 8 1007.6 - 0.0 - - - - - - -
08/01:30pm 32.4 NW 5 8 1008.2 - 0.0 - - - - - - -
08/01:00pm 32.6 NW 6 11 1008.6 - 0.0 - - - - - - -
08/12:30pm 32.1 NW 6 8 1009.1 - 0.0 - - - - - - -
08/12:00pm 32.3 NW 6 9 1009.8 - 0.0 - - - - - - -
08/11:30am 31.2 NW 6 9 1010.4 - 0.0 - - - - - - -
08/11:00am 31.4 NW 5 7 1010.6 - 0.0 - - - - - - -
08/10:30am 31.1 NW 5 7 1010.6 - 0.0 - - - - - - -
08/10:00am 31.5 NW 5 7 1010.7 - 0.0 - - - - - - -
08/09:30am 31.0 NW 4 6 1010.7 - 0.0 - - - - - - -
08/09:00am 30.4 WNW 4 8 1010.5 - 0.0 - - - - - - -
08/08:30am 29.6 WNW 3 6 1010.3 - 0.0 - - - - - - -
08/08:00am 29.2 W 4 6 1009.9 - 0.0 - - - - - - -
08/07:30am 28.9 W 4 7 1009.3 - 0.0 - - - - - - -
08/07:00am 28.7 WNW 4 6 1008.8 - 0.0 - - - - - - -
08/06:30am 28.4 W 3 5 1008.8 - 0.0 - - - - - - -
08/06:00am 28.4 W 4 6 1008.5 - 0.0 - - - - - - -
08/05:30am 28.6 W 4 7 1008.4 - 0.0 - - - - - - -
08/05:00am 28.4 WSW 4 6 1008.4 - 0.0 - - - - - - -
08/04:30am 28.3 WSW 4 6 1008.1 - 0.0 - - - - - - -
08/04:00am 28.4 WSW 4 6 1007.9 - 0.0 - - - - - - -
08/03:30am 28.4 WSW 4 9 1007.8 - 0.0 - - - - - - -
08/03:00am 28.6 WSW 5 8 1007.8 - 0.0 - - - - - - -
08/02:30am 28.6 SW 4 6 1008.1 - 0.0 - - - - - - -
08/02:00am 28.5 WSW 4 7 1008.1 - 0.0 - - - - - - -
08/01:30am 28.4 SW 4 7 1008.2 - 0.0 - - - - - - -
08/01:00am 28.3 SW 3 6 1008.5 - 0.0 - - - - - - -
08/12:30am 28.4 SW 2 4 1009.2 - 0.0 - - - - - - -
08/12:00am 28.8 SW 3 7 1009.5 - 0.0 - - - - - - -
 
Date/Time
EST
Temp

°C
Wind Pressure Rain
since 9am
mm
Weather Cloud Vis
km
Sea
Height
m
Swell
Dir
 
Speed
knots
Gust
knots
hPa Trend Height
m
Period
s
Dir
07/11:30pm 29.0 WSW 4 7 1009.5 - 0.0 - - - - - - -
07/11:00pm 29.0 WSW 4 9 1009.5 - 0.0 - - - - - - -
07/10:30pm 29.1 WSW 4 8 1009.1 - 0.0 - - - - - - -
07/10:00pm 29.1 WSW 4 7 1008.6 - 0.0 - - - - - - -
07/09:30pm 29.1 WSW 5 10 1008.5 - 0.0 - - - - - - -
07/09:00pm 29.1 WSW 5 8 1008.4 - 0.0 - - - - - - -
07/08:30pm 29.1 WSW 6 9 1007.9 - 0.0 - - - - - - -
07/08:00pm 29.2 WSW 6 9 1007.5 - 0.0 - - - - - - -
07/07:30pm 29.2 WSW 4 9 1007.3 - 0.0 - - - - - - -
07/07:00pm 29.2 SW 3 6 1007.0 - 0.0 - - - - - - -
07/06:30pm 29.5 SW 5 9 1006.8 - 0.0 - - - - - - -
07/06:00pm 30.4 SW 5 10 1006.4 - 0.0 - - - - - - -
07/05:30pm 30.7 SW 6 11 1005.9 - 0.0 - - - - - - -
07/05:00pm 30.9 WSW 5 10 1005.7 - 0.0 - - - - - - -
07/04:30pm 31.0 WSW 6 11 1005.6 - 0.0 - - - - - - -
07/04:00pm 31.3 WNW 6 9 1005.6 - 0.0 - - - - - - -
07/03:30pm 31.3 WNW 6 10 1005.8 - 0.0 - - - - - - -
07/03:00pm 31.4 WNW 7 11 1006.0 - 0.0 - - - - - - -
07/02:30pm 31.1 WNW 8 11 1006.4 - 0.0 - - - - - - -
07/02:00pm 31.4 WNW 8 12 1006.5 - 0.0 - - - - - - -
07/01:30pm 31.1 WNW 7 11 1006.8 - 0.0 - - - - - - -
07/01:00pm 31.5 NW 8 13 1007.2 - 0.0 - - - - - - -

Other Formats:

Comma delimited format used in spreadsheet applications
http://www.bom.gov.au/fwo/IDQ60701/IDQ60701.94182.axf

JavaScript Object Notation format (JSON) in row-major order
http://www.bom.gov.au/fwo/IDQ60701/IDQ60701.94182.json